Time;durP1;ratioP1;P1;durP2;ratioP2;P2;SDS_P1;SDS_P2;PMS_P1;PMS_P2;Temp;Humidity;BMP_temperature;BMP_pressure;BME280_temperature;BME280_humidity;BME280_pressure;Samples;Min_cycle;Max_cycle;Signal;HPM_P1;HPM_P2
2023/03/06 00:01:25;;;;;;;;;;;5.80;99.90;;;;;;6213483;23;19899;-85
2023/03/06 00:03:51;;;;;;;;;;;5.50;99.90;;;;;;6212703;23;20333;-85
2023/03/06 00:06:17;;;;;;;;;;;5.50;99.90;;;;;;6212146;23;20050;-85
2023/03/06 00:08:42;;;;;;;;;;;5.50;99.90;;;;;;6212771;23;19906;-85
2023/03/06 00:11:08;;;;;;;;;;;6.40;99.90;;;;;;6212487;23;19946;-84
2023/03/06 00:13:33;;;;;;;;;;;4.70;99.90;;;;;;6212629;23;19932;-85
2023/03/06 00:16:02;;;;;;;;;;;5.60;99.90;;;;;;6212258;23;19901;-85
2023/03/06 00:18:27;;;;;;;;;;;5.10;99.90;;;;;;6211544;23;19899;-85
2023/03/06 00:20:53;;;;;;;;;;;5.60;99.90;;;;;;6213460;23;19999;-86
2023/03/06 00:23:19;;;;;;;;;;;5.40;99.90;;;;;;6212572;23;19907;-85
2023/03/06 00:25:44;;;;;;;;;;;6.20;99.90;;;;;;6212043;23;19908;-85
2023/03/06 00:28:11;;;;;;;;;;;5.50;99.90;;;;;;6212437;23;19900;-85
2023/03/06 00:30:36;;;;;;;;;;;6.10;99.90;;;;;;6212436;23;19899;-85
2023/03/06 00:33:02;;;;;;;;;;;5.10;99.90;;;;;;6211381;23;20287;-85
2023/03/06 00:35:27;;;;;;;;;;;5.30;99.90;;;;;;6212242;23;19942;-85
2023/03/06 00:37:53;;;;;;;;;;;5.40;99.90;;;;;;6213466;23;20229;-85
2023/03/06 00:40:19;;;;;;;;;;;5.30;99.90;;;;;;6185818;23;19978;-85
2023/03/06 00:42:45;;;;;;;;;;;5.30;99.90;;;;;;6185778;23;19900;-85
2023/03/06 00:45:10;;;;;;;;;;;5.30;99.90;;;;;;6212354;23;19900;-85
2023/03/06 00:47:36;;;;;;;;;;;5.50;99.90;;;;;;6211149;23;19904;-85
2023/03/06 00:50:02;;;;;;;;;;;5.30;99.90;;;;;;6185463;23;19957;-85
2023/03/06 00:52:28;;;;;;;;;;;5.30;99.90;;;;;;6213243;23;19900;-85
2023/03/06 00:54:53;;;;;;;;;;;5.30;99.90;;;;;;6213193;23;19911;-85
2023/03/06 00:57:19;;;;;;;;;;;5.30;99.90;;;;;;6211670;23;19907;-85
2023/03/06 00:59:45;;;;;;;;;;;5.30;99.90;;;;;;6211950;23;20222;-84
2023/03/06 01:02:10;;;;;;;;;;;5.40;99.90;;;;;;6184148;23;19900;-85
2023/03/06 01:04:36;;;;;;;;;;;5.40;99.90;;;;;;6211292;23;19904;-85
2023/03/06 01:07:01;;;;;;;;;;;5.40;99.90;;;;;;6212203;23;19912;-85
2023/03/06 01:09:28;;;;;;;;;;;5.40;99.90;;;;;;6212156;23;19995;-84
2023/03/06 01:11:54;;;;;;;;;;;5.40;99.90;;;;;;6211978;23;19900;-85
2023/03/06 01:14:19;;;;;;;;;;;6.60;99.90;;;;;;6184799;23;20120;-85
2023/03/06 01:16:45;;;;;;;;;;;5.40;99.90;;;;;;6211412;23;19904;-85
2023/03/06 01:19:10;;;;;;;;;;;5.40;99.90;;;;;;6211217;23;19907;-85
2023/03/06 01:21:36;;;;;;;;;;;5.30;99.90;;;;;;6211956;23;19907;-85
2023/03/06 01:24:01;;;;;;;;;;;5.30;99.90;;;;;;6211748;23;19910;-85
2023/03/06 01:26:27;;;;;;;;;;;4.90;99.90;;;;;;6186075;23;19907;-84
2023/03/06 01:28:52;;;;;;;;;;;5.30;99.90;;;;;;6211137;23;19906;-85
2023/03/06 01:31:18;;;;;;;;;;;4.50;99.90;;;;;;6211557;23;19900;-85
2023/03/06 01:33:43;;;;;;;;;;;5.30;99.90;;;;;;6211745;23;19899;-85
2023/03/06 01:36:10;;;;;;;;;;;5.30;99.90;;;;;;6211866;23;19900;-85
2023/03/06 01:38:36;;;;;;;;;;;5.30;99.90;;;;;;6211156;23;19907;-84
2023/03/06 01:41:02;;;;;;;;;;;5.40;99.90;;;;;;6185148;23;19903;-85
2023/03/06 01:43:29;;;;;;;;;;;5.40;99.90;;;;;;6212327;23;19906;-84
2023/03/06 01:46:13;;;;;;;;;;;5.40;99.90;;;;;;6211530;23;19927;-85
2023/03/06 01:48:39;;;;;;;;;;;5.40;99.90;;;;;;6211693;23;20248;-85
2023/03/06 01:51:04;;;;;;;;;;;5.40;99.90;;;;;;6211710;23;19923;-85
2023/03/06 01:53:30;;;;;;;;;;;5.40;99.90;;;;;;6212164;23;19904;-85
2023/03/06 01:55:56;;;;;;;;;;;5.40;99.90;;;;;;6211019;23;19900;-85
2023/03/06 01:58:21;;;;;;;;;;;5.40;99.90;;;;;;6211445;23;20118;-85
2023/03/06 02:00:47;;;;;;;;;;;5.90;99.90;;;;;;6184210;23;19900;-85
2023/03/06 02:03:14;;;;;;;;;;;5.60;99.90;;;;;;6211568;23;20237;-84
2023/03/06 02:05:40;;;;;;;;;;;5.40;99.90;;;;;;6211248;23;19983;-84
2023/03/06 02:08:07;;;;;;;;;;;5.80;99.90;;;;;;6211551;23;19946;-84
2023/03/06 02:10:32;;;;;;;;;;;6.40;99.90;;;;;;6184939;23;19904;-85
2023/03/06 02:12:58;;;;;;;;;;;5.30;99.90;;;;;;6185716;23;20301;-85
2023/03/06 02:15:24;;;;;;;;;;;5.30;99.90;;;;;;6210417;23;19900;-85
2023/03/06 02:17:50;;;;;;;;;;;5.30;99.90;;;;;;6184907;23;19900;-85
2023/03/06 02:20:22;;;;;;;;;;;5.30;99.90;;;;;;6211021;23;20027;-84
2023/03/06 02:22:47;;;;;;;;;;;4.70;99.90;;;;;;6211254;23;19900;-85
2023/03/06 02:25:32;;;;;;;;;;;5.10;99.90;;;;;;6210783;23;19900;-84
2023/03/06 02:27:57;;;;;;;;;;;5.10;99.90;;;;;;6211005;23;20328;-85
2023/03/06 02:30:24;;;;;;;;;;;5.10;99.90;;;;;;6184814;23;20355;-84
2023/03/06 02:32:49;;;;;;;;;;;5.00;99.90;;;;;;6184288;23;19900;-84
2023/03/06 02:35:23;;;;;;;;;;;5.00;99.90;;;;;;6210882;23;19900;-85
2023/03/06 02:37:50;;;;;;;;;;;5.10;99.90;;;;;;6184241;23;19900;-85
2023/03/06 02:40:16;;;;;;;;;;;5.10;99.90;;;;;;6211044;23;20335;-85
2023/03/06 02:42:47;;;;;;;;;;;6.00;99.90;;;;;;6211646;23;20104;-84
2023/03/06 02:45:13;;;;;;;;;;;5.00;99.90;;;;;;6210231;23;19904;-84
2023/03/06 02:47:39;;;;;;;;;;;5.00;99.90;;;;;;6209903;23;19911;-85
2023/03/06 02:50:05;;;;;;;;;;;5.60;99.90;;;;;;6211792;23;19899;-84
2023/03/06 02:52:30;;;;;;;;;;;5.00;99.90;;;;;;6212191;23;19927;-85
2023/03/06 02:54:56;;;;;;;;;;;4.60;99.90;;;;;;6183794;23;19900;-85
2023/03/06 02:57:21;;;;;;;;;;;5.10;99.90;;;;;;6210936;23;19904;-84
2023/03/06 02:59:47;;;;;;;;;;;5.00;99.90;;;;;;6210169;23;19970;-85
2023/03/06 03:02:12;;;;;;;;;;;5.00;99.90;;;;;;6211316;23;19984;-84
2023/03/06 03:04:38;;;;;;;;;;;4.40;99.90;;;;;;6210418;23;19940;-84
2023/03/06 03:07:03;;;;;;;;;;;4.90;99.90;;;;;;6211548;23;19931;-85
2023/03/06 03:09:35;;;;;;;;;;;4.90;99.90;;;;;;6210466;23;19900;-85
2023/03/06 03:12:02;;;;;;;;;;;4.60;99.90;;;;;;6211570;23;20248;-84
2023/03/06 03:14:27;;;;;;;;;;;4.60;99.90;;;;;;6210590;23;19900;-85
2023/03/06 03:16:54;;;;;;;;;;;4.90;99.90;;;;;;6210942;23;19907;-84
2023/03/06 03:19:19;;;;;;;;;;;7.20;99.90;;;;;;6211113;23;19914;-84
2023/03/06 03:21:45;;;;;;;;;;;4.90;99.90;;;;;;6210960;23;19931;-84
2023/03/06 03:24:10;;;;;;;;;;;4.90;99.90;;;;;;6210894;23;19904;-83
2023/03/06 03:26:36;;;;;;;;;;;4.90;99.90;;;;;;6210935;23;19999;-86
2023/03/06 03:29:03;;;;;;;;;;;5.20;99.90;;;;;;6210900;23;20031;-86
2023/03/06 03:31:29;;;;;;;;;;;4.90;99.90;;;;;;6210570;23;19900;-84
2023/03/06 03:33:54;;;;;;;;;;;4.90;99.90;;;;;;6210717;23;19923;-85
2023/03/06 03:36:20;;;;;;;;;;;4.90;99.90;;;;;;6209150;23;19903;-86
2023/03/06 03:38:45;;;;;;;;;;;4.90;99.90;;;;;;6210355;23;19953;-86
2023/03/06 03:41:11;;;;;;;;;;;4.90;99.90;;;;;;6210781;23;19899;-85
2023/03/06 03:43:36;;;;;;;;;;;4.90;99.90;;;;;;6211937;23;20006;-84
2023/03/06 03:46:02;;;;;;;;;;;4.90;99.90;;;;;;6210556;23;19915;-85
2023/03/06 03:48:27;;;;;;;;;;;4.90;99.90;;;;;;6210662;23;19983;-87
2023/03/06 03:50:53;;;;;;;;;;;4.90;99.90;;;;;;6210588;23;19900;-84
2023/03/06 03:53:18;;;;;;;;;;;4.90;99.90;;;;;;6210470;23;20400;-85
2023/03/06 03:55:45;;;;;;;;;;;4.90;99.90;;;;;;6183992;23;19978;-85
2023/03/06 03:58:11;;;;;;;;;;;4.90;99.90;;;;;;6210719;23;19900;-85
2023/03/06 04:00:36;;;;;;;;;;;4.90;99.90;;;;;;6185034;23;19907;-84
2023/03/06 04:03:02;;;;;;;;;;;4.90;99.90;;;;;;6210757;23;19899;-84
2023/03/06 04:05:27;;;;;;;;;;;4.90;99.90;;;;;;6210514;23;20249;-83
2023/03/06 04:07:53;;;;;;;;;;;5.90;99.90;;;;;;6210436;23;19950;-84
2023/03/06 04:10:18;;;;;;;;;;;4.90;99.90;;;;;;6210824;23;19971;-84
2023/03/06 04:12:44;;;;;;;;;;;4.90;99.90;;;;;;6210641;23;20280;-84
2023/03/06 04:15:10;;;;;;;;;;;5.80;99.90;;;;;;6211692;23;20351;-86
2023/03/06 04:17:35;;;;;;;;;;;4.80;99.90;;;;;;6185085;23;19900;-85
2023/03/06 04:20:01;;;;;;;;;;;4.80;99.90;;;;;;6210808;23;19907;-85
2023/03/06 04:22:27;;;;;;;;;;;4.80;99.90;;;;;;6210407;23;19953;-84
2023/03/06 04:24:52;;;;;;;;;;;4.70;99.90;;;;;;6210947;23;19903;-86
2023/03/06 04:27:18;;;;;;;;;;;6.20;99.90;;;;;;6210607;23;19908;-83
2023/03/06 04:29:43;;;;;;;;;;;4.40;99.90;;;;;;6210673;23;20341;-84
2023/03/06 04:32:09;;;;;;;;;;;6.00;99.90;;;;;;6211512;23;19907;-85
2023/03/06 04:34:35;;;;;;;;;;;6.00;99.90;;;;;;6210585;23;19903;-85
2023/03/06 04:37:01;;;;;;;;;;;4.70;99.90;;;;;;6210310;23;20155;-86
2023/03/06 04:39:27;;;;;;;;;;;4.70;99.90;;;;;;6210596;23;19904;-85
2023/03/06 04:41:52;;;;;;;;;;;4.80;99.90;;;;;;6183909;23;19908;-84
2023/03/06 04:44:17;;;;;;;;;;;4.70;99.90;;;;;;6211926;23;19900;-83
2023/03/06 04:46:43;;;;;;;;;;;4.60;99.90;;;;;;6211970;23;20383;-83
2023/03/06 04:49:08;;;;;;;;;;;4.70;99.90;;;;;;6186605;23;19899;-85
2023/03/06 04:51:35;;;;;;;;;;;4.70;99.90;;;;;;6211800;23;20329;-85
2023/03/06 04:54:01;;;;;;;;;;;4.70;99.90;;;;;;6211824;23;20493;-87
2023/03/06 04:56:26;;;;;;;;;;;6.30;99.90;;;;;;6212255;23;20317;-88
2023/03/06 04:58:52;;;;;;;;;;;4.50;99.90;;;;;;6212172;23;20312;-87
2023/03/06 05:01:17;;;;;;;;;;;4.70;99.90;;;;;;6185543;23;19900;-87
2023/03/06 05:03:43;;;;;;;;;;;4.60;99.90;;;;;;6185281;23;19900;-86
2023/03/06 05:06:08;;;;;;;;;;;4.70;99.90;;;;;;6212375;23;19915;-85
2023/03/06 05:08:34;;;;;;;;;;;4.60;99.90;;;;;;6210998;23;19983;-87
2023/03/06 05:11:00;;;;;;;;;;;4.80;99.90;;;;;;6211488;23;19900;-85
2023/03/06 05:13:26;;;;;;;;;;;5.00;99.90;;;;;;6212236;23;19904;-85
2023/03/06 05:15:52;;;;;;;;;;;4.80;99.90;;;;;;6185409;23;19911;-87
2023/03/06 05:18:17;;;;;;;;;;;4.80;99.90;;;;;;6211213;23;19907;-87
2023/03/06 05:20:43;;;;;;;;;;;6.30;99.90;;;;;;6211455;23;20348;-86
2023/03/06 05:23:09;;;;;;;;;;;4.80;99.90;;;;;;6212590;23;19900;-87
2023/03/06 05:25:34;;;;;;;;;;;6.60;99.90;;;;;;6211684;23;19904;-85
2023/03/06 05:28:00;;;;;;;;;;;4.40;99.90;;;;;;6211134;23;20325;-88
2023/03/06 05:30:25;;;;;;;;;;;4.80;99.90;;;;;;6211628;23;19904;-86
2023/03/06 05:32:51;;;;;;;;;;;7.00;99.90;;;;;;6211051;23;19904;-86
2023/03/06 05:35:18;;;;;;;;;;;6.50;99.90;;;;;;6211892;23;19900;-86
2023/03/06 05:37:43;;;;;;;;;;;6.20;99.90;;;;;;6211970;23;19900;-85
2023/03/06 05:40:10;;;;;;;;;;;4.80;99.90;;;;;;6206902;23;19906;-88
2023/03/06 05:42:35;;;;;;;;;;;4.80;99.90;;;;;;6210068;23;20241;-87
2023/03/06 05:45:01;;;;;;;;;;;4.80;99.90;;;;;;6210729;23;19900;-86
2023/03/06 05:47:26;;;;;;;;;;;4.80;99.90;;;;;;6210797;23;19908;-86
2023/03/06 05:49:52;;;;;;;;;;;4.80;99.90;;;;;;6210736;23;19935;-88
2023/03/06 05:52:17;;;;;;;;;;;5.00;99.90;;;;;;6210724;23;19904;-87
2023/03/06 05:54:43;;;;;;;;;;;4.80;99.90;;;;;;6211878;23;19900;-85
2023/03/06 05:57:09;;;;;;;;;;;4.80;99.90;;;;;;6212560;23;19900;-88
2023/03/06 05:59:34;;;;;;;;;;;4.80;99.90;;;;;;6211543;23;19906;-87
2023/03/06 06:02:00;;;;;;;;;;;4.90;99.90;;;;;;6185321;23;19907;-87
2023/03/06 06:04:26;;;;;;;;;;;5.50;99.90;;;;;;6185371;23;19900;-86
2023/03/06 06:06:56;;;;;;;;;;;4.80;99.90;;;;;;6184750;23;19954;-86
2023/03/06 06:09:21;;;;;;;;;;;4.80;99.90;;;;;;6211306;23;20332;-87
2023/03/06 06:11:49;;;;;;;;;;;4.50;99.90;;;;;;6211565;23;19900;-86
2023/03/06 06:14:15;;;;;;;;;;;4.80;99.90;;;;;;6211450;23;20339;-85
2023/03/06 06:16:40;;;;;;;;;;;4.70;99.90;;;;;;6212508;23;19974;-85
2023/03/06 06:19:06;;;;;;;;;;;4.70;99.90;;;;;;6211278;23;19935;-86
2023/03/06 06:21:32;;;;;;;;;;;4.60;99.90;;;;;;6211458;23;19903;-84
2023/03/06 06:23:57;;;;;;;;;;;4.70;99.90;;;;;;6210513;23;19927;-86
2023/03/06 06:26:23;;;;;;;;;;;4.60;99.90;;;;;;6211306;23;19908;-86
2023/03/06 06:28:49;;;;;;;;;;;4.70;99.90;;;;;;6211685;23;19993;-85
2023/03/06 06:31:15;;;;;;;;;;;4.70;99.90;;;;;;6212000;23;20272;-84
2023/03/06 06:33:40;;;;;;;;;;;4.70;99.90;;;;;;6212231;23;19931;-84
2023/03/06 06:36:26;;;;;;;;;;;4.80;99.90;;;;;;6211387;23;19911;-84
2023/03/06 06:38:52;;;;;;;;;;;4.70;99.90;;;;;;6209817;23;19911;-85
2023/03/06 06:41:17;;;;;;;;;;;4.70;99.90;;;;;;6184600;23;19900;-85
2023/03/06 06:43:43;;;;;;;;;;;4.60;99.90;;;;;;6212239;23;19900;-85
2023/03/06 06:46:08;;;;;;;;;;;4.70;99.90;;;;;;6184285;23;19907;-85
2023/03/06 06:48:36;;;;;;;;;;;4.70;99.90;;;;;;6211337;23;19900;-85
2023/03/06 06:51:02;;;;;;;;;;;4.70;99.90;;;;;;6211128;23;19907;-84
2023/03/06 06:53:27;;;;;;;;;;;4.70;99.90;;;;;;6211151;23;19931;-84
2023/03/06 06:55:53;;;;;;;;;;;4.70;99.90;;;;;;6209996;23;19907;-85
2023/03/06 06:58:18;;;;;;;;;;;4.70;99.90;;;;;;6210970;23;20353;-85
2023/03/06 07:00:44;;;;;;;;;;;4.80;99.90;;;;;;6211951;23;19923;-84
2023/03/06 07:03:11;;;;;;;;;;;5.60;99.90;;;;;;6211115;23;20387;-85
2023/03/06 07:05:36;;;;;;;;;;;4.80;99.90;;;;;;6210945;23;19911;-84
2023/03/06 07:08:02;;;;;;;;;;;4.70;99.90;;;;;;6210622;23;19910;-85
2023/03/06 07:10:27;;;;;;;;;;;5.80;99.90;;;;;;6183608;23;19950;-86
2023/03/06 07:12:55;;;;;;;;;;;4.80;99.90;;;;;;6184212;23;20217;-86
2023/03/06 07:15:21;;;;;;;;;;;4.70;99.90;;;;;;6211012;23;19977;-85
2023/03/06 07:17:47;;;;;;;;;;;4.70;99.90;;;;;;6185353;23;19900;-84
2023/03/06 07:20:13;;;;;;;;;;;4.70;99.90;;;;;;6211884;23;20358;-84
2023/03/06 07:22:39;;;;;;;;;;;5.00;99.90;;;;;;6210952;23;19931;-86
2023/03/06 07:25:05;;;;;;;;;;;4.80;99.90;;;;;;6210673;23;19934;-84
2023/03/06 07:27:30;;;;;;;;;;;4.80;99.90;;;;;;6209961;23;19954;-86
2023/03/06 07:29:56;;;;;;;;;;;4.80;99.90;;;;;;6210770;23;19906;-86
2023/03/06 07:32:21;;;;;;;;;;;4.80;99.90;;;;;;6210934;23;19900;-84
2023/03/06 07:34:47;;;;;;;;;;;4.80;99.90;;;;;;6185242;23;19922;-85
2023/03/06 07:37:12;;;;;;;;;;;4.80;99.90;;;;;;6210889;23;19904;-86
2023/03/06 07:39:38;;;;;;;;;;;4.80;99.90;;;;;;6210813;23;19903;-85
2023/03/06 07:42:06;;;;;;;;;;;4.80;99.90;;;;;;6210135;23;20351;-84
2023/03/06 07:44:34;;;;;;;;;;;4.80;99.90;;;;;;6208499;23;19899;-85
2023/03/06 07:47:00;;;;;;;;;;;4.80;99.90;;;;;;6210694;23;19908;-85
2023/03/06 07:49:26;;;;;;;;;;;4.80;99.90;;;;;;6210821;23;19900;-86
2023/03/06 07:51:51;;;;;;;;;;;4.80;99.90;;;;;;6210756;23;20288;-85
2023/03/06 07:54:17;;;;;;;;;;;4.90;99.90;;;;;;6184850;23;19899;-85
2023/03/06 07:56:42;;;;;;;;;;;4.70;99.90;;;;;;6210553;23;20451;-85
2023/03/06 07:59:09;;;;;;;;;;;5.40;99.90;;;;;;6209858;23;19899;-85
2023/03/06 08:01:35;;;;;;;;;;;5.70;99.90;;;;;;6210517;23;20336;-85
2023/03/06 08:04:00;;;;;;;;;;;4.90;99.90;;;;;;6210852;23;19899;-85
2023/03/06 08:06:26;;;;;;;;;;;4.90;99.90;;;;;;6210699;23;19923;-85
2023/03/06 08:08:53;;;;;;;;;;;5.30;99.90;;;;;;6210773;23;19938;-85
2023/03/06 08:11:19;;;;;;;;;;;4.90;99.90;;;;;;6211058;23;19900;-85
2023/03/06 08:13:45;;;;;;;;;;;4.90;99.90;;;;;;6184188;23;19900;-84
2023/03/06 08:16:11;;;;;;;;;;;4.90;99.90;;;;;;6210706;23;19904;-85
2023/03/06 08:18:39;;;;;;;;;;;5.00;99.90;;;;;;6211534;23;19904;-84
2023/03/06 08:21:05;;;;;;;;;;;4.90;99.90;;;;;;6212555;23;19900;-85
2023/03/06 08:23:31;;;;;;;;;;;4.90;99.90;;;;;;6212547;23;19907;-85
2023/03/06 08:25:57;;;;;;;;;;;4.70;99.90;;;;;;6211772;23;20277;-85
2023/03/06 08:28:22;;;;;;;;;;;4.70;99.90;;;;;;6212289;23;19974;-85
2023/03/06 08:30:48;;;;;;;;;;;5.20;99.90;;;;;;6213650;23;20325;-85
2023/03/06 08:33:13;;;;;;;;;;;4.90;99.90;;;;;;6212442;23;19900;-84
2023/03/06 08:35:39;;;;;;;;;;;4.90;99.90;;;;;;6212515;23;19899;-85
2023/03/06 08:38:04;;;;;;;;;;;5.10;99.90;;;;;;6185642;23;19900;-84
2023/03/06 08:40:30;;;;;;;;;;;4.90;99.90;;;;;;6211807;23;19900;-84
2023/03/06 08:42:55;;;;;;;;;;;5.00;99.90;;;;;;6185554;23;19900;-85
2023/03/06 08:45:21;;;;;;;;;;;5.00;99.90;;;;;;6213466;23;19931;-85
2023/03/06 08:47:46;;;;;;;;;;;5.40;99.90;;;;;;6212338;23;19904;-84
2023/03/06 08:50:12;;;;;;;;;;;4.90;99.90;;;;;;6212475;23;19903;-85
2023/03/06 08:52:38;;;;;;;;;;;4.60;99.90;;;;;;6212309;23;20026;-85
2023/03/06 08:55:04;;;;;;;;;;;5.00;99.90;;;;;;6211618;23;19904;-84
2023/03/06 08:57:29;;;;;;;;;;;5.00;99.90;;;;;;6212038;23;20389;-84
2023/03/06 08:59:55;;;;;;;;;;;5.00;99.90;;;;;;6185812;23;19954;-84
2023/03/06 09:02:20;;;;;;;;;;;5.10;99.90;;;;;;6186609;23;19900;-84
2023/03/06 09:04:46;;;;;;;;;;;5.10;99.90;;;;;;6211759;23;19900;-86
2023/03/06 09:07:11;;;;;;;;;;;5.90;99.90;;;;;;6212117;23;20118;-85
2023/03/06 09:09:37;;;;;;;;;;;5.20;99.90;;;;;;6212114;23;19900;-84
2023/03/06 09:12:02;;;;;;;;;;;5.20;99.90;;;;;;6210589;23;19910;-84
2023/03/06 09:14:29;;;;;;;;;;;5.20;99.90;;;;;;6212192;23;19907;-84
2023/03/06 09:16:55;;;;;;;;;;;5.30;99.90;;;;;;6211773;23;19907;-84
2023/03/06 09:19:20;;;;;;;;;;;5.40;99.90;;;;;;6213186;23;19912;-86
2023/03/06 09:21:47;;;;;;;;;;;5.50;99.90;;;;;;6211949;23;19922;-85
2023/03/06 09:24:12;;;;;;;;;;;5.50;99.90;;;;;;6211947;23;19900;-85
2023/03/06 09:26:38;;;;;;;;;;;5.50;99.90;;;;;;6211185;23;20305;-85
2023/03/06 09:29:03;;;;;;;;;;;5.60;99.90;;;;;;6211951;23;19978;-84
2023/03/06 09:31:30;;;;;;;;;;;5.70;99.90;;;;;;6211711;23;19907;-84
2023/03/06 09:33:56;;;;;;;;;;;5.70;99.90;;;;;;6212075;23;19998;-85
2023/03/06 09:36:22;;;;;;;;;;;5.90;99.90;;;;;;6212730;23;20332;-85
2023/03/06 09:38:48;;;;;;;;;;;5.50;99.90;;;;;;6211705;23;19907;-84
2023/03/06 09:41:23;;;;;;;;;;;5.70;99.90;;;;;;6211169;23;20399;-85
2023/03/06 09:43:50;;;;;;;;;;;5.70;99.90;;;;;;6185255;23;19900;-85
2023/03/06 09:46:22;;;;;;;;;;;5.90;99.90;;;;;;6211811;23;19995;-85
2023/03/06 09:49:09;;;;;;;;;;;5.90;99.90;;;;;;6211596;23;19906;-85
2023/03/06 09:51:55;;;;;;;;;;;6.00;99.90;;;;;;6184866;23;19900;-85
2023/03/06 09:54:25;;;;;;;;;;;5.60;99.90;;;;;;6137596;23;20374;-85
2023/03/06 09:56:51;;;;;;;;;;;6.10;99.90;;;;;;6212757;23;19923;-85
2023/03/06 09:59:19;;;;;;;;;;;6.50;99.90;;;;;;6183605;23;20218;-85
2023/03/06 10:01:53;;;;;;;;;;;6.00;99.90;;;;;;6211571;23;19899;-86
2023/03/06 10:04:24;;;;;;;;;;;6.10;99.90;;;;;;6211770;23;19907;-85
2023/03/06 10:06:54;;;;;;;;;;;6.10;99.90;;;;;;6211405;23;19953;-85
2023/03/06 10:09:23;;;;;;;;;;;6.50;99.90;;;;;;6184942;23;19900;-85
2023/03/06 10:11:54;;;;;;;;;;;6.90;99.90;;;;;;6210865;23;19900;-84
2023/03/06 10:14:19;;;;;;;;;;;6.00;99.90;;;;;;6184342;23;19946;-85
2023/03/06 10:16:45;;;;;;;;;;;7.00;99.90;;;;;;6211657;23;20280;-84
2023/03/06 10:19:13;;;;;;;;;;;6.00;99.90;;;;;;6211339;23;19915;-85
2023/03/06 10:21:49;;;;;;;;;;;6.00;99.90;;;;;;6211475;23;19900;-85
2023/03/06 10:24:25;;;;;;;;;;;6.00;99.90;;;;;;6211438;23;19950;-85
2023/03/06 10:26:57;;;;;;;;;;;6.10;99.90;;;;;;6210161;23;19934;-85
2023/03/06 10:29:34;;;;;;;;;;;6.10;99.90;;;;;;6212611;23;19908;-84
2023/03/06 10:32:10;;;;;;;;;;;6.10;99.90;;;;;;6211404;23;19904;-85
2023/03/06 10:34:37;;;;;;;;;;;6.10;99.90;;;;;;6211391;23;20296;-86
2023/03/06 10:37:08;;;;;;;;;;;6.10;99.90;;;;;;6184537;23;19907;-86
2023/03/06 10:39:34;;;;;;;;;;;6.20;99.90;;;;;;6211110;23;19899;-85
2023/03/06 10:41:59;;;;;;;;;;;6.20;99.90;;;;;;6211379;23;19946;-86
2023/03/06 10:44:25;;;;;;;;;;;6.40;99.90;;;;;;6185580;23;20245;-86
2023/03/06 10:46:52;;;;;;;;;;;6.50;99.90;;;;;;6210441;23;20037;-86
2023/03/06 10:49:23;;;;;;;;;;;6.10;99.90;;;;;;6211247;23;19907;-85
2023/03/06 10:51:54;;;;;;;;;;;6.70;99.90;;;;;;6210929;23;20313;-86
2023/03/06 10:54:20;;;;;;;;;;;6.80;99.90;;;;;;6184117;23;20237;-85
2023/03/06 10:56:46;;;;;;;;;;;6.80;99.90;;;;;;6211328;23;19980;-86
2023/03/06 10:59:12;;;;;;;;;;;7.60;99.90;;;;;;6211177;23;19900;-85
2023/03/06 11:01:40;;;;;;;;;;;6.70;99.90;;;;;;6211022;23;19906;-85
2023/03/06 11:04:24;;;;;;;;;;;6.00;99.90;;;;;;6184394;23;19900;-85
2023/03/06 11:07:08;;;;;;;;;;;6.60;99.90;;;;;;6184436;23;20238;-85
2023/03/06 11:09:34;;;;;;;;;;;6.60;99.90;;;;;;6183831;23;19987;-85
2023/03/06 11:12:38;;;;;;;;;;;6.70;99.90;;;;;;6211117;23;19900;-84
2023/03/06 11:15:13;;;;;;;;;;;6.90;99.90;;;;;;6060663;23;19989;-86
2023/03/06 11:17:57;;;;;;;;;;;7.00;99.90;;;;;;6060195;23;19901;-85
2023/03/06 11:20:22;;;;;;;;;;;7.10;99.90;;;;;;6157285;23;19912;-85
2023/03/06 11:22:53;;;;;;;;;;;7.30;99.90;;;;;;6210922;23;19907;-85
2023/03/06 11:25:20;;;;;;;;;;;7.40;99.90;;;;;;6210796;23;20018;-85
2023/03/06 11:27:51;;;;;;;;;;;7.40;99.90;;;;;;6210946;23;19915;-86
2023/03/06 11:30:19;;;;;;;;;;;8.00;99.90;;;;;;6210743;23;19997;-85
2023/03/06 11:32:46;;;;;;;;;;;7.60;99.90;;;;;;6210192;23;19962;-85
2023/03/06 11:35:14;;;;;;;;;;;7.70;99.90;;;;;;6210402;23;19946;-85
2023/03/06 11:37:44;;;;;;;;;;;7.80;99.90;;;;;;6210332;23;19962;-85
2023/03/06 11:40:10;;;;;;;;;;;7.70;99.90;;;;;;6211087;23;19900;-85
2023/03/06 11:42:41;;;;;;;;;;;7.60;99.90;;;;;;6210965;23;19977;-85
2023/03/06 11:45:08;;;;;;;;;;;7.50;99.90;;;;;;6210781;23;19927;-85
2023/03/06 11:47:43;;;;;;;;;;;7.60;99.90;;;;;;6210602;23;20034;-85
2023/03/06 11:50:30;;;;;;;;;;;7.70;99.90;;;;;;6209933;23;20215;-86
2023/03/06 11:53:00;;;;;;;;;;;7.80;99.90;;;;;;6211004;23;20267;-84
2023/03/06 11:55:41;;;;;;;;;;;7.80;99.90;;;;;;6212754;23;19982;-85
2023/03/06 11:58:06;;;;;;;;;;;7.80;99.90;;;;;;6212855;23;19903;-85
2023/03/06 12:00:47;;;;;;;;;;;7.90;99.90;;;;;;6213168;23;19907;-85
2023/03/06 12:03:24;;;;;;;;;;;7.90;99.90;;;;;;6212914;23;19906;-85
2023/03/06 12:06:26;;;;;;;;;;;8.00;99.90;;;;;;6212225;23;19958;-86
2023/03/06 12:09:03;;;;;;;;;;;8.10;99.90;;;;;;6038909;23;19905;-86
2023/03/06 12:11:42;;;;;;;;;;;8.20;99.90;;;;;;6194513;23;19906;-85
2023/03/06 12:14:19;;;;;;;;;;;8.30;99.90;;;;;;6212892;23;19900;-87
2023/03/06 12:16:44;;;;;;;;;;;8.30;99.90;;;;;;6185759;23;19965;-87
2023/03/06 12:19:16;;;;;;;;;;;8.40;99.90;;;;;;6212646;23;20339;-86
2023/03/06 12:21:57;;;;;;;;;;;8.40;99.90;;;;;;6212318;23;19946;-85
2023/03/06 12:24:23;;;;;;;;;;;8.50;99.90;;;;;;6212784;23;19903;-85
2023/03/06 12:26:53;;;;;;;;;;;8.80;99.90;;;;;;6211913;23;19908;-85
2023/03/06 12:29:37;;;;;;;;;;;8.80;99.90;;;;;;6212923;23;19900;-85
2023/03/06 12:32:07;;;;;;;;;;;8.50;99.90;;;;;;6213287;23;19906;-85
2023/03/06 12:34:55;;;;;;;;;;;8.70;99.90;;;;;;6213571;23;19900;-85
2023/03/06 12:37:40;;;;;;;;;;;8.80;99.90;;;;;;6212419;23;19973;-86
2023/03/06 12:40:20;;;;;;;;;;;8.80;99.90;;;;;;6212368;23;19903;-85
2023/03/06 12:43:21;;;;;;;;;;;9.10;99.90;;;;;;6212573;23;19903;-85
2023/03/06 12:45:48;;;;;;;;;;;8.90;99.90;;;;;;6062535;23;19929;-86
2023/03/06 12:48:17;;;;;;;;;;;9.00;99.90;;;;;;6182185;23;19914;-86
2023/03/06 12:50:43;;;;;;;;;;;9.00;99.90;;;;;;6184843;23;19907;-86
2023/03/06 12:53:13;;;;;;;;;;;8.80;99.90;;;;;;6212000;23;19900;-86
2023/03/06 12:55:40;;;;;;;;;;;9.00;99.90;;;;;;6212373;23;19900;-85
2023/03/06 12:58:24;;;;;;;;;;;9.30;99.90;;;;;;6212333;23;19906;-85
2023/03/06 13:00:56;;;;;;;;;;;8.80;99.90;;;;;;6212180;23;20329;-85
2023/03/06 13:03:25;;;;;;;;;;;8.80;99.90;;;;;;6185373;23;19907;-85
2023/03/06 13:05:59;;;;;;;;;;;8.60;99.90;;;;;;6184824;23;19908;-86
2023/03/06 13:08:34;;;;;;;;;;;8.70;99.90;;;;;;6212226;23;19900;-86
2023/03/06 13:11:06;;;;;;;;;;;8.90;99.90;;;;;;6212190;23;20006;-86
2023/03/06 13:13:32;;;;;;;;;;;8.90;99.90;;;;;;6213149;23;19899;-86
2023/03/06 13:16:00;;;;;;;;;;;8.90;99.90;;;;;;6212195;23;19907;-87
2023/03/06 13:18:26;;;;;;;;;;;9.00;99.90;;;;;;6212074;23;20187;-86
2023/03/06 13:20:52;;;;;;;;;;;9.00;99.90;;;;;;6211555;23;19911;-85
2023/03/06 13:23:37;;;;;;;;;;;9.40;99.90;;;;;;6212194;23;19899;-86
2023/03/06 13:26:03;;;;;;;;;;;9.00;99.90;;;;;;6185766;23;19911;-85
2023/03/06 13:28:38;;;;;;;;;;;9.00;99.90;;;;;;6212130;23;19900;-85
2023/03/06 13:31:04;;;;;;;;;;;9.00;99.90;;;;;;6213167;23;19908;-85
2023/03/06 13:33:31;;;;;;;;;;;9.00;99.90;;;;;;6211925;23;20390;-86
2023/03/06 13:35:57;;;;;;;;;;;9.10;99.90;;;;;;6211312;23;20100;-85
2023/03/06 13:38:30;;;;;;;;;;;9.20;99.90;;;;;;6211770;23;19900;-86
2023/03/06 13:41:15;;;;;;;;;;;9.00;99.90;;;;;;6185414;23;19935;-84
2023/03/06 13:43:41;;;;;;;;;;;8.90;99.90;;;;;;6211976;23;19899;-86
2023/03/06 13:46:24;;;;;;;;;;;9.00;99.90;;;;;;6212246;23;19950;-85
2023/03/06 13:49:08;;;;;;;;;;;9.00;99.90;;;;;;6211734;23;19983;-86
2023/03/06 13:51:33;;;;;;;;;;;9.10;99.90;;;;;;6212992;23;19904;-86
2023/03/06 13:54:02;;;;;;;;;;;9.10;99.90;;;;;;6211739;23;19955;-86
2023/03/06 13:56:27;;;;;;;;;;;9.10;99.90;;;;;;6185056;23;20157;-86
2023/03/06 13:58:56;;;;;;;;;;;9.20;99.90;;;;;;6184885;23;20222;-86
2023/03/06 14:01:33;;;;;;;;;;;9.10;99.90;;;;;;6210971;23;20293;-87
2023/03/06 14:04:15;;;;;;;;;;;9.20;99.90;;;;;;6211342;23;19908;-86
2023/03/06 14:06:50;;;;;;;;;;;9.20;99.90;;;;;;6211722;23;19908;-86
2023/03/06 14:09:27;;;;;;;;;;;9.20;99.90;;;;;;6211691;23;19900;-85
2023/03/06 14:11:56;;;;;;;;;;;9.30;99.90;;;;;;6211441;23;19904;-85
2023/03/06 14:14:27;;;;;;;;;;;9.40;99.90;;;;;;6211703;23;19923;-86
2023/03/06 14:16:53;;;;;;;;;;;9.30;99.90;;;;;;6210840;23;19904;-86
2023/03/06 14:19:18;;;;;;;;;;;9.30;99.90;;;;;;6211535;23;19958;-85
2023/03/06 14:21:48;;;;;;;;;;;9.30;99.90;;;;;;6211455;23;19904;-85
2023/03/06 14:24:15;;;;;;;;;;;9.30;99.90;;;;;;6211420;23;19927;-85
2023/03/06 14:26:47;;;;;;;;;;;9.30;99.90;;;;;;6211122;23;19986;-87
2023/03/06 14:29:23;;;;;;;;;;;9.40;99.90;;;;;;6211486;23;20352;-85
2023/03/06 14:31:53;;;;;;;;;;;9.40;99.90;;;;;;6184184;23;19900;-85
2023/03/06 14:34:20;;;;;;;;;;;9.50;99.90;;;;;;6184591;23;20237;-87
2023/03/06 14:36:48;;;;;;;;;;;9.50;99.90;;;;;;6211276;23;19911;-84